sensor_id;sensor_type;location;lat;lon;timestamp;P1;durP1;ratioP1;P2;durP2;ratioP2
10347;SDS011;5220;43.192;23.284;2022-11-20T00:00:12;14.82;;;11.90;;
10347;SDS011;5220;43.192;23.284;2022-11-20T00:02:41;14.82;;;11.88;;
10347;SDS011;5220;43.192;23.284;2022-11-20T00:05:08;18.55;;;11.43;;
10347;SDS011;5220;43.192;23.284;2022-11-20T00:07:35;14.93;;;12.63;;
10347;SDS011;5220;43.192;23.284;2022-11-20T00:12:38;13.55;;;11.27;;
10347;SDS011;5220;43.192;23.284;2022-11-20T00:15:04;16.38;;;13.50;;
10347;SDS011;5220;43.192;23.284;2022-11-20T00:17:32;19.20;;;12.30;;
10347;SDS011;5220;43.192;23.284;2022-11-20T00:20:11;13.65;;;11.48;;
10347;SDS011;5220;43.192;23.284;2022-11-20T00:22:38;12.35;;;10.70;;
10347;SDS011;5220;43.192;23.284;2022-11-20T00:25:05;18.80;;;13.38;;
10347;SDS011;5220;43.192;23.284;2022-11-20T00:27:32;15.50;;;11.73;;
10347;SDS011;5220;43.192;23.284;2022-11-20T00:32:36;15.95;;;11.38;;
10347;SDS011;5220;43.192;23.284;2022-11-20T00:35:03;19.75;;;11.75;;
10347;SDS011;5220;43.192;23.284;2022-11-20T00:37:32;25.48;;;12.05;;
10347;SDS011;5220;43.192;23.284;2022-11-20T00:39:59;14.57;;;11.38;;
10347;SDS011;5220;43.192;23.284;2022-11-20T00:42:25;22.52;;;12.18;;
10347;SDS011;5220;43.192;23.284;2022-11-20T00:44:52;33.72;;;12.60;;
10347;SDS011;5220;43.192;23.284;2022-11-20T00:47:19;16.45;;;11.98;;
10347;SDS011;5220;43.192;23.284;2022-11-20T00:49:46;19.20;;;11.55;;
10347;SDS011;5220;43.192;23.284;2022-11-20T00:52:13;14.07;;;11.65;;
10347;SDS011;5220;43.192;23.284;2022-11-20T00:54:41;12.77;;;10.18;;
10347;SDS011;5220;43.192;23.284;2022-11-20T00:57:08;15.75;;;10.60;;
10347;SDS011;5220;43.192;23.284;2022-11-20T01:03:03;10.32;;;8.73;;
10347;SDS011;5220;43.192;23.284;2022-11-20T01:05:33;11.00;;;9.80;;
10347;SDS011;5220;43.192;23.284;2022-11-20T01:08:00;16.83;;;11.75;;
10347;SDS011;5220;43.192;23.284;2022-11-20T01:10:28;14.82;;;9.50;;
10347;SDS011;5220;43.192;23.284;2022-11-20T01:12:55;14.55;;;11.05;;
10347;SDS011;5220;43.192;23.284;2022-11-20T01:15:36;15.02;;;11.23;;
10347;SDS011;5220;43.192;23.284;2022-11-20T01:18:02;12.80;;;11.15;;
10347;SDS011;5220;43.192;23.284;2022-11-20T01:20:30;16.65;;;10.48;;
10347;SDS011;5220;43.192;23.284;2022-11-20T01:23:00;13.95;;;9.88;;
10347;SDS011;5220;43.192;23.284;2022-11-20T01:25:28;11.30;;;9.90;;
10347;SDS011;5220;43.192;23.284;2022-11-20T01:27:55;12.82;;;10.55;;
10347;SDS011;5220;43.192;23.284;2022-11-20T01:30:22;12.15;;;10.10;;
10347;SDS011;5220;43.192;23.284;2022-11-20T01:32:49;12.00;;;10.48;;
10347;SDS011;5220;43.192;23.284;2022-11-20T01:35:16;12.05;;;10.20;;
10347;SDS011;5220;43.192;23.284;2022-11-20T01:37:42;12.80;;;9.77;;
10347;SDS011;5220;43.192;23.284;2022-11-20T01:40:10;16.77;;;11.15;;
10347;SDS011;5220;43.192;23.284;2022-11-20T01:42:43;22.20;;;10.98;;
10347;SDS011;5220;43.192;23.284;2022-11-20T01:45:45;19.60;;;10.63;;
10347;SDS011;5220;43.192;23.284;2022-11-20T01:48:27;32.45;;;11.98;;
10347;SDS011;5220;43.192;23.284;2022-11-20T01:50:59;39.35;;;11.45;;
10347;SDS011;5220;43.192;23.284;2022-11-20T01:53:29;17.33;;;11.18;;
10347;SDS011;5220;43.192;23.284;2022-11-20T01:55:59;12.13;;;10.75;;
10347;SDS011;5220;43.192;23.284;2022-11-20T02:04:41;13.55;;;10.25;;
10347;SDS011;5220;43.192;23.284;2022-11-20T02:07:08;12.98;;;10.65;;
10347;SDS011;5220;43.192;23.284;2022-11-20T02:09:45;17.13;;;11.38;;
10347;SDS011;5220;43.192;23.284;2022-11-20T02:12:12;11.98;;;10.57;;
10347;SDS011;5220;43.192;23.284;2022-11-20T02:14:58;13.20;;;10.98;;
10347;SDS011;5220;43.192;23.284;2022-11-20T02:17:26;13.75;;;11.32;;
10347;SDS011;5220;43.192;23.284;2022-11-20T02:19:53;15.15;;;12.38;;
10347;SDS011;5220;43.192;23.284;2022-11-20T02:22:21;13.57;;;11.25;;
10347;SDS011;5220;43.192;23.284;2022-11-20T02:24:55;12.68;;;11.00;;
10347;SDS011;5220;43.192;23.284;2022-11-20T02:27:25;15.65;;;11.52;;
10347;SDS011;5220;43.192;23.284;2022-11-20T02:33:14;13.18;;;11.20;;
10347;SDS011;5220;43.192;23.284;2022-11-20T02:35:44;13.95;;;11.27;;
10347;SDS011;5220;43.192;23.284;2022-11-20T02:38:12;12.02;;;10.20;;
10347;SDS011;5220;43.192;23.284;2022-11-20T02:40:41;13.68;;;9.98;;
10347;SDS011;5220;43.192;23.284;2022-11-20T02:43:08;12.63;;;10.77;;
10347;SDS011;5220;43.192;23.284;2022-11-20T02:45:36;11.50;;;9.25;;
10347;SDS011;5220;43.192;23.284;2022-11-20T02:48:03;10.40;;;9.30;;
10347;SDS011;5220;43.192;23.284;2022-11-20T02:50:32;11.73;;;9.13;;
10347;SDS011;5220;43.192;23.284;2022-11-20T02:52:59;10.40;;;8.80;;
10347;SDS011;5220;43.192;23.284;2022-11-20T02:55:26;10.35;;;9.05;;
10347;SDS011;5220;43.192;23.284;2022-11-20T02:57:54;13.77;;;9.25;;
10347;SDS011;5220;43.192;23.284;2022-11-20T03:00:21;10.68;;;9.45;;
10347;SDS011;5220;43.192;23.284;2022-11-20T03:02:48;12.18;;;10.43;;
10347;SDS011;5220;43.192;23.284;2022-11-20T03:05:14;15.27;;;11.13;;
10347;SDS011;5220;43.192;23.284;2022-11-20T03:07:43;15.57;;;10.13;;
10347;SDS011;5220;43.192;23.284;2022-11-20T03:10:10;12.88;;;9.80;;
10347;SDS011;5220;43.192;23.284;2022-11-20T03:12:37;14.82;;;10.27;;
10347;SDS011;5220;43.192;23.284;2022-11-20T03:15:05;12.80;;;9.95;;
10347;SDS011;5220;43.192;23.284;2022-11-20T03:17:33;11.45;;;9.13;;
10347;SDS011;5220;43.192;23.284;2022-11-20T03:20:00;12.90;;;10.07;;
10347;SDS011;5220;43.192;23.284;2022-11-20T03:22:28;12.38;;;10.63;;
10347;SDS011;5220;43.192;23.284;2022-11-20T03:24:55;14.27;;;10.38;;
10347;SDS011;5220;43.192;23.284;2022-11-20T03:27:21;12.63;;;10.35;;
10347;SDS011;5220;43.192;23.284;2022-11-20T03:33:06;15.38;;;9.80;;
10347;SDS011;5220;43.192;23.284;2022-11-20T03:35:32;13.05;;;9.70;;
10347;SDS011;5220;43.192;23.284;2022-11-20T03:37:59;12.23;;;9.50;;
10347;SDS011;5220;43.192;23.284;2022-11-20T03:40:26;14.32;;;10.43;;
10347;SDS011;5220;43.192;23.284;2022-11-20T03:42:52;11.48;;;9.75;;
10347;SDS011;5220;43.192;23.284;2022-11-20T03:45:19;12.30;;;10.20;;
10347;SDS011;5220;43.192;23.284;2022-11-20T03:47:46;14.52;;;9.73;;
10347;SDS011;5220;43.192;23.284;2022-11-20T03:50:14;13.43;;;9.15;;
10347;SDS011;5220;43.192;23.284;2022-11-20T03:52:41;13.70;;;9.77;;
10347;SDS011;5220;43.192;23.284;2022-11-20T03:55:08;13.73;;;9.25;;
10347;SDS011;5220;43.192;23.284;2022-11-20T03:57:35;12.40;;;9.05;;
10347;SDS011;5220;43.192;23.284;2022-11-20T04:00:02;13.23;;;9.27;;
10347;SDS011;5220;43.192;23.284;2022-11-20T04:02:30;10.60;;;8.45;;
10347;SDS011;5220;43.192;23.284;2022-11-20T04:04:56;12.07;;;9.15;;
10347;SDS011;5220;43.192;23.284;2022-11-20T04:07:25;10.85;;;8.45;;
10347;SDS011;5220;43.192;23.284;2022-11-20T04:09:54;9.02;;;7.97;;
10347;SDS011;5220;43.192;23.284;2022-11-20T04:12:21;9.43;;;7.95;;
10347;SDS011;5220;43.192;23.284;2022-11-20T04:18:11;10.85;;;8.07;;
10347;SDS011;5220;43.192;23.284;2022-11-20T04:20:37;10.48;;;8.00;;
10347;SDS011;5220;43.192;23.284;2022-11-20T04:23:05;10.23;;;7.85;;
10347;SDS011;5220;43.192;23.284;2022-11-20T04:25:32;10.05;;;8.75;;
10347;SDS011;5220;43.192;23.284;2022-11-20T04:27:59;12.88;;;9.15;;
10347;SDS011;5220;43.192;23.284;2022-11-20T04:30:26;9.82;;;8.40;;
10347;SDS011;5220;43.192;23.284;2022-11-20T04:32:52;11.82;;;8.30;;
10347;SDS011;5220;43.192;23.284;2022-11-20T04:35:19;9.57;;;7.72;;
10347;SDS011;5220;43.192;23.284;2022-11-20T04:37:46;10.18;;;8.60;;
10347;SDS011;5220;43.192;23.284;2022-11-20T04:40:14;8.32;;;7.38;;
10347;SDS011;5220;43.192;23.284;2022-11-20T04:42:41;7.78;;;6.97;;
10347;SDS011;5220;43.192;23.284;2022-11-20T04:45:08;9.90;;;7.00;;
10347;SDS011;5220;43.192;23.284;2022-11-20T04:47:35;7.88;;;6.78;;
10347;SDS011;5220;43.192;23.284;2022-11-20T04:53:23;8.13;;;6.93;;
10347;SDS011;5220;43.192;23.284;2022-11-20T04:55:52;9.23;;;6.53;;
10347;SDS011;5220;43.192;23.284;2022-11-20T04:58:25;6.80;;;5.60;;
10347;SDS011;5220;43.192;23.284;2022-11-20T05:00:52;7.70;;;5.70;;
10347;SDS011;5220;43.192;23.284;2022-11-20T05:03:19;6.90;;;6.13;;
10347;SDS011;5220;43.192;23.284;2022-11-20T05:05:46;6.32;;;5.63;;
10347;SDS011;5220;43.192;23.284;2022-11-20T05:08:12;6.63;;;5.47;;
10347;SDS011;5220;43.192;23.284;2022-11-20T05:10:39;5.90;;;5.30;;
10347;SDS011;5220;43.192;23.284;2022-11-20T05:13:07;6.43;;;5.82;;
10347;SDS011;5220;43.192;23.284;2022-11-20T05:15:34;6.63;;;5.50;;
10347;SDS011;5220;43.192;23.284;2022-11-20T05:18:00;8.68;;;7.43;;
10347;SDS011;5220;43.192;23.284;2022-11-20T05:20:27;8.63;;;6.85;;
10347;SDS011;5220;43.192;23.284;2022-11-20T05:22:56;11.15;;;8.40;;
10347;SDS011;5220;43.192;23.284;2022-11-20T05:25:23;9.77;;;7.05;;
10347;SDS011;5220;43.192;23.284;2022-11-20T05:27:50;7.28;;;6.07;;
10347;SDS011;5220;43.192;23.284;2022-11-20T05:30:18;7.47;;;6.03;;
10347;SDS011;5220;43.192;23.284;2022-11-20T05:32:45;7.47;;;5.68;;
10347;SDS011;5220;43.192;23.284;2022-11-20T05:35:11;6.40;;;5.20;;
10347;SDS011;5220;43.192;23.284;2022-11-20T05:37:39;5.20;;;4.18;;
10347;SDS011;5220;43.192;23.284;2022-11-20T05:40:06;7.40;;;4.75;;
10347;SDS011;5220;43.192;23.284;2022-11-20T05:42:34;7.82;;;6.32;;
10347;SDS011;5220;43.192;23.284;2022-11-20T05:45:01;7.47;;;6.30;;
10347;SDS011;5220;43.192;23.284;2022-11-20T05:47:33;9.60;;;6.63;;
10347;SDS011;5220;43.192;23.284;2022-11-20T05:50:00;8.00;;;6.38;;
10347;SDS011;5220;43.192;23.284;2022-11-20T05:52:28;7.97;;;6.55;;
10347;SDS011;5220;43.192;23.284;2022-11-20T05:54:55;8.60;;;5.32;;
10347;SDS011;5220;43.192;23.284;2022-11-20T05:57:21;9.60;;;7.15;;
10347;SDS011;5220;43.192;23.284;2022-11-20T06:03:10;12.38;;;8.13;;
10347;SDS011;5220;43.192;23.284;2022-11-20T06:05:37;10.52;;;5.50;;
10347;SDS011;5220;43.192;23.284;2022-11-20T06:08:03;7.13;;;6.05;;
10347;SDS011;5220;43.192;23.284;2022-11-20T06:10:30;7.22;;;5.65;;
10347;SDS011;5220;43.192;23.284;2022-11-20T06:12:57;8.23;;;5.80;;
10347;SDS011;5220;43.192;23.284;2022-11-20T06:15:24;6.90;;;5.15;;
10347;SDS011;5220;43.192;23.284;2022-11-20T06:17:51;7.90;;;4.95;;
10347;SDS011;5220;43.192;23.284;2022-11-20T06:20:19;7.20;;;5.65;;
10347;SDS011;5220;43.192;23.284;2022-11-20T06:22:46;7.22;;;4.78;;
10347;SDS011;5220;43.192;23.284;2022-11-20T06:25:13;5.60;;;4.18;;
10347;SDS011;5220;43.192;23.284;2022-11-20T06:27:40;7.13;;;3.95;;
10347;SDS011;5220;43.192;23.284;2022-11-20T06:33:28;4.03;;;3.35;;
10347;SDS011;5220;43.192;23.284;2022-11-20T06:35:57;5.97;;;3.35;;
10347;SDS011;5220;43.192;23.284;2022-11-20T06:38:25;4.95;;;2.90;;
10347;SDS011;5220;43.192;23.284;2022-11-20T06:40:52;2.95;;;2.65;;
10347;SDS011;5220;43.192;23.284;2022-11-20T06:43:19;2.67;;;2.45;;
10347;SDS011;5220;43.192;23.284;2022-11-20T06:45:46;4.53;;;2.30;;
10347;SDS011;5220;43.192;23.284;2022-11-20T06:48:18;2.90;;;2.28;;
10347;SDS011;5220;43.192;23.284;2022-11-20T06:50:44;2.83;;;2.63;;
10347;SDS011;5220;43.192;23.284;2022-11-20T06:53:13;2.28;;;2.00;;
10347;SDS011;5220;43.192;23.284;2022-11-20T06:55:41;2.30;;;2.05;;
10347;SDS011;5220;43.192;23.284;2022-11-20T06:58:08;2.50;;;2.30;;
10347;SDS011;5220;43.192;23.284;2022-11-20T07:00:35;3.35;;;2.45;;
10347;SDS011;5220;43.192;23.284;2022-11-20T07:03:03;2.85;;;2.08;;
10347;SDS011;5220;43.192;23.284;2022-11-20T07:05:30;3.58;;;3.28;;
10347;SDS011;5220;43.192;23.284;2022-11-20T07:07:56;8.73;;;7.40;;
10347;SDS011;5220;43.192;23.284;2022-11-20T07:10:25;8.63;;;7.15;;
10347;SDS011;5220;43.192;23.284;2022-11-20T07:12:52;10.18;;;8.15;;
10347;SDS011;5220;43.192;23.284;2022-11-20T07:15:20;11.32;;;10.13;;
10347;SDS011;5220;43.192;23.284;2022-11-20T07:17:48;16.30;;;13.63;;
10347;SDS011;5220;43.192;23.284;2022-11-20T07:20:15;15.90;;;13.07;;
10347;SDS011;5220;43.192;23.284;2022-11-20T07:22:42;16.65;;;12.55;;
10347;SDS011;5220;43.192;23.284;2022-11-20T07:25:09;13.32;;;11.52;;
10347;SDS011;5220;43.192;23.284;2022-11-20T07:27:38;12.35;;;10.95;;
10347;SDS011;5220;43.192;23.284;2022-11-20T07:32:54;14.38;;;12.52;;
10347;SDS011;5220;43.192;23.284;2022-11-20T07:35:22;17.40;;;14.65;;
10347;SDS011;5220;43.192;23.284;2022-11-20T07:37:49;22.85;;;17.83;;
10347;SDS011;5220;43.192;23.284;2022-11-20T07:40:16;14.23;;;12.43;;
10347;SDS011;5220;43.192;23.284;2022-11-20T07:42:48;10.55;;;9.45;;
10347;SDS011;5220;43.192;23.284;2022-11-20T07:45:15;10.82;;;8.55;;
10347;SDS011;5220;43.192;23.284;2022-11-20T07:47:42;11.63;;;9.10;;
10347;SDS011;5220;43.192;23.284;2022-11-20T07:50:09;17.85;;;11.93;;
10347;SDS011;5220;43.192;23.284;2022-11-20T07:52:36;13.25;;;10.35;;
10347;SDS011;5220;43.192;23.284;2022-11-20T07:55:03;26.65;;;18.17;;
10347;SDS011;5220;43.192;23.284;2022-11-20T08:00:27;21.50;;;16.63;;
10347;SDS011;5220;43.192;23.284;2022-11-20T08:02:53;19.02;;;16.08;;
10347;SDS011;5220;43.192;23.284;2022-11-20T08:05:20;18.52;;;15.48;;
10347;SDS011;5220;43.192;23.284;2022-11-20T08:07:47;24.15;;;18.85;;
10347;SDS011;5220;43.192;23.284;2022-11-20T08:10:14;28.77;;;21.80;;
10347;SDS011;5220;43.192;23.284;2022-11-20T08:12:45;24.05;;;19.55;;
10347;SDS011;5220;43.192;23.284;2022-11-20T08:18:16;36.22;;;25.98;;
10347;SDS011;5220;43.192;23.284;2022-11-20T08:20:43;40.17;;;28.80;;
10347;SDS011;5220;43.192;23.284;2022-11-20T08:23:10;26.75;;;21.80;;
10347;SDS011;5220;43.192;23.284;2022-11-20T08:25:38;67.13;;;45.83;;
10347;SDS011;5220;43.192;23.284;2022-11-20T08:28:05;49.70;;;34.15;;
10347;SDS011;5220;43.192;23.284;2022-11-20T08:30:34;23.08;;;15.60;;
10347;SDS011;5220;43.192;23.284;2022-11-20T08:33:03;14.25;;;7.72;;
10347;SDS011;5220;43.192;23.284;2022-11-20T08:35:32;11.27;;;7.82;;
10347;SDS011;5220;43.192;23.284;2022-11-20T08:37:59;7.25;;;5.78;;
10347;SDS011;5220;43.192;23.284;2022-11-20T08:40:26;14.93;;;10.60;;
10347;SDS011;5220;43.192;23.284;2022-11-20T08:42:52;10.80;;;7.97;;
10347;SDS011;5220;43.192;23.284;2022-11-20T08:45:19;24.00;;;12.85;;
10347;SDS011;5220;43.192;23.284;2022-11-20T08:47:46;12.68;;;10.45;;
10347;SDS011;5220;43.192;23.284;2022-11-20T08:50:14;9.25;;;7.55;;
10347;SDS011;5220;43.192;23.284;2022-11-20T08:52:42;9.95;;;6.55;;
10347;SDS011;5220;43.192;23.284;2022-11-20T08:55:09;9.88;;;5.85;;
10347;SDS011;5220;43.192;23.284;2022-11-20T08:57:36;8.95;;;6.60;;
10347;SDS011;5220;43.192;23.284;2022-11-20T09:03:25;5.78;;;4.78;;
10347;SDS011;5220;43.192;23.284;2022-11-20T09:05:57;7.68;;;5.43;;
10347;SDS011;5220;43.192;23.284;2022-11-20T09:08:25;8.70;;;6.20;;
10347;SDS011;5220;43.192;23.284;2022-11-20T09:10:52;11.98;;;9.77;;
10347;SDS011;5220;43.192;23.284;2022-11-20T09:13:19;10.27;;;9.15;;
10347;SDS011;5220;43.192;23.284;2022-11-20T09:15:45;10.88;;;7.57;;
10347;SDS011;5220;43.192;23.284;2022-11-20T09:18:12;9.27;;;6.00;;
10347;SDS011;5220;43.192;23.284;2022-11-20T09:26:36;20.75;;;15.60;;
10347;SDS011;5220;43.192;23.284;2022-11-20T09:32:24;25.17;;;20.30;;
10347;SDS011;5220;43.192;23.284;2022-11-20T09:34:51;25.17;;;21.70;;
10347;SDS011;5220;43.192;23.284;2022-11-20T09:37:18;21.92;;;19.05;;
10347;SDS011;5220;43.192;23.284;2022-11-20T09:42:44;26.08;;;20.73;;
10347;SDS011;5220;43.192;23.284;2022-11-20T09:45:20;34.67;;;17.88;;
10347;SDS011;5220;43.192;23.284;2022-11-20T09:47:57;15.90;;;12.63;;
10347;SDS011;5220;43.192;23.284;2022-11-20T09:50:35;25.08;;;17.88;;
10347;SDS011;5220;43.192;23.284;2022-11-20T09:53:10;22.15;;;13.95;;
10347;SDS011;5220;43.192;23.284;2022-11-20T09:55:39;19.67;;;16.92;;
10347;SDS011;5220;43.192;23.284;2022-11-20T09:58:12;22.60;;;18.60;;
10347;SDS011;5220;43.192;23.284;2022-11-20T10:00:42;48.58;;;23.17;;
10347;SDS011;5220;43.192;23.284;2022-11-20T10:03:11;21.63;;;15.93;;
10347;SDS011;5220;43.192;23.284;2022-11-20T10:05:43;11.75;;;10.35;;
10347;SDS011;5220;43.192;23.284;2022-11-20T10:08:14;15.13;;;12.85;;
10347;SDS011;5220;43.192;23.284;2022-11-20T10:10:46;17.17;;;13.60;;
10347;SDS011;5220;43.192;23.284;2022-11-20T10:13:30;15.40;;;11.88;;
10347;SDS011;5220;43.192;23.284;2022-11-20T10:16:10;26.98;;;14.35;;
10347;SDS011;5220;43.192;23.284;2022-11-20T10:18:51;14.10;;;9.02;;
10347;SDS011;5220;43.192;23.284;2022-11-20T10:21:34;58.60;;;12.98;;
10347;SDS011;5220;43.192;23.284;2022-11-20T10:24:25;9.55;;;5.75;;
10347;SDS011;5220;43.192;23.284;2022-11-20T10:27:06;7.88;;;4.95;;
10347;SDS011;5220;43.192;23.284;2022-11-20T10:29:47;7.20;;;6.25;;
10347;SDS011;5220;43.192;23.284;2022-11-20T10:35:49;15.85;;;6.20;;
10347;SDS011;5220;43.192;23.284;2022-11-20T10:38:23;9.00;;;7.38;;
10347;SDS011;5220;43.192;23.284;2022-11-20T10:40:53;5.82;;;4.55;;
10347;SDS011;5220;43.192;23.284;2022-11-20T10:43:44;8.52;;;7.63;;
10347;SDS011;5220;43.192;23.284;2022-11-20T10:46:14;4.90;;;4.40;;
10347;SDS011;5220;43.192;23.284;2022-11-20T10:48:43;4.65;;;3.67;;
10347;SDS011;5220;43.192;23.284;2022-11-20T10:51:13;3.83;;;3.50;;
10347;SDS011;5220;43.192;23.284;2022-11-20T10:53:58;7.05;;;5.50;;
10347;SDS011;5220;43.192;23.284;2022-11-20T10:56:35;8.88;;;6.88;;
10347;SDS011;5220;43.192;23.284;2022-11-20T11:02:19;5.95;;;4.47;;
10347;SDS011;5220;43.192;23.284;2022-11-20T11:04:48;7.68;;;6.88;;
10347;SDS011;5220;43.192;23.284;2022-11-20T11:07:17;6.75;;;3.35;;
10347;SDS011;5220;43.192;23.284;2022-11-20T11:12:24;7.28;;;5.13;;
10347;SDS011;5220;43.192;23.284;2022-11-20T11:14:53;5.85;;;4.03;;
10347;SDS011;5220;43.192;23.284;2022-11-20T11:17:24;7.90;;;5.85;;
10347;SDS011;5220;43.192;23.284;2022-11-20T11:19:57;7.50;;;6.07;;
10347;SDS011;5220;43.192;23.284;2022-11-20T11:22:24;7.70;;;6.68;;
10347;SDS011;5220;43.192;23.284;2022-11-20T11:24:54;19.15;;;8.07;;
10347;SDS011;5220;43.192;23.284;2022-11-20T11:27:20;5.13;;;4.63;;
10347;SDS011;5220;43.192;23.284;2022-11-20T11:33:10;7.68;;;6.32;;
10347;SDS011;5220;43.192;23.284;2022-11-20T11:35:43;8.73;;;7.68;;
10347;SDS011;5220;43.192;23.284;2022-11-20T11:38:12;8.93;;;8.02;;
10347;SDS011;5220;43.192;23.284;2022-11-20T11:40:41;6.40;;;5.78;;
10347;SDS011;5220;43.192;23.284;2022-11-20T11:43:16;9.68;;;7.53;;
10347;SDS011;5220;43.192;23.284;2022-11-20T11:46:03;12.13;;;10.52;;
10347;SDS011;5220;43.192;23.284;2022-11-20T11:51:58;9.27;;;7.43;;
10347;SDS011;5220;43.192;23.284;2022-11-20T11:54:32;13.68;;;8.32;;
10347;SDS011;5220;43.192;23.284;2022-11-20T11:57:05;15.82;;;6.15;;
10347;SDS011;5220;43.192;23.284;2022-11-20T11:59:41;5.00;;;4.40;;
10347;SDS011;5220;43.192;23.284;2022-11-20T12:02:22;8.07;;;6.53;;
10347;SDS011;5220;43.192;23.284;2022-11-20T12:05:00;9.02;;;6.38;;
10347;SDS011;5220;43.192;23.284;2022-11-20T12:10:37;6.88;;;5.35;;
10347;SDS011;5220;43.192;23.284;2022-11-20T12:13:13;11.43;;;6.20;;
10347;SDS011;5220;43.192;23.284;2022-11-20T12:15:47;8.27;;;5.88;;
10347;SDS011;5220;43.192;23.284;2022-11-20T12:18:15;10.80;;;6.35;;
10347;SDS011;5220;43.192;23.284;2022-11-20T12:24:10;11.27;;;5.50;;
10347;SDS011;5220;43.192;23.284;2022-11-20T12:26:58;5.53;;;3.67;;
10347;SDS011;5220;43.192;23.284;2022-11-20T12:29:38;3.33;;;2.92;;
